Time;durP1;ratioP1;P1;durP2;ratioP2;P2;SDS_P1;SDS_P2;PMS_P1;PMS_P2;Temp;Humidity;BMP_temperature;BMP_pressure;BME280_temperature;BME280_humidity;BME280_pressure;Samples;Min_cycle;Max_cycle;Signal;HPM_P1;HPM_P2
2023/09/25 00:02:14;;;;;;;;;;;12.40;99.90;;;;;;5102382;28;20625;-77
2023/09/25 00:04:39;;;;;;;;;;;12.40;99.90;;;;;;5105587;28;19993;-78
2023/09/25 00:07:05;;;;;;;;;;;12.50;99.90;;;;;;5097679;27;19939;-77
2023/09/25 00:09:31;;;;;;;;;;;12.60;99.90;;;;;;5087162;28;19923;-78
2023/09/25 00:11:57;;;;;;;;;;;12.60;99.90;;;;;;5085501;27;19939;-79
2023/09/25 00:14:23;;;;;;;;;;;12.70;99.90;;;;;;5102945;28;19930;-78
2023/09/25 00:16:48;;;;;;;;;;;12.70;99.90;;;;;;5098243;28;20144;-77
2023/09/25 00:19:15;;;;;;;;;;;12.80;99.90;;;;;;5104471;27;19935;-77
2023/09/25 00:21:41;;;;;;;;;;;12.80;99.90;;;;;;5084091;28;20006;-79
2023/09/25 00:24:07;;;;;;;;;;;12.80;99.90;;;;;;5101835;28;20469;-78
2023/09/25 00:26:33;;;;;;;;;;;12.90;99.90;;;;;;5084077;28;20026;-78
2023/09/25 00:28:59;;;;;;;;;;;12.90;99.90;;;;;;5086629;28;19931;-78
2023/09/25 00:31:24;;;;;;;;;;;12.80;99.90;;;;;;5080558;28;20329;-77
2023/09/25 00:33:50;;;;;;;;;;;12.80;99.90;;;;;;5079394;28;19939;-78
2023/09/25 00:36:17;;;;;;;;;;;12.80;99.90;;;;;;5103507;28;19924;-78
2023/09/25 00:38:42;;;;;;;;;;;12.80;99.90;;;;;;5083936;28;20275;-78
2023/09/25 00:41:14;;;;;;;;;;;12.70;99.90;;;;;;5085523;28;19977;-78
2023/09/25 00:43:40;;;;;;;;;;;12.70;99.90;;;;;;5084163;28;20067;-77
2023/09/25 00:46:06;;;;;;;;;;;12.70;99.90;;;;;;5118607;27;19923;-78
2023/09/25 00:48:32;;;;;;;;;;;12.70;99.90;;;;;;5098753;28;20216;-78
2023/09/25 00:50:58;;;;;;;;;;;12.60;99.90;;;;;;5096590;28;19928;-78
2023/09/25 00:53:25;;;;;;;;;;;12.60;99.90;;;;;;5085296;28;19947;-78
2023/09/25 00:55:50;;;;;;;;;;;12.50;99.90;;;;;;5085790;28;19930;-78
2023/09/25 00:58:17;;;;;;;;;;;12.50;99.90;;;;;;5101734;28;19972;-78
2023/09/25 01:00:43;;;;;;;;;;;12.40;99.90;;;;;;5107931;27;20374;-79
2023/09/25 01:03:09;;;;;;;;;;;12.40;99.90;;;;;;5101539;28;20438;-78
2023/09/25 01:05:35;;;;;;;;;;;12.40;99.90;;;;;;5083751;28;19928;-78
2023/09/25 01:08:02;;;;;;;;;;;12.40;99.90;;;;;;5098974;27;19924;-79
2023/09/25 01:10:27;;;;;;;;;;;12.40;99.90;;;;;;5084379;28;19939;-78
2023/09/25 01:12:53;;;;;;;;;;;12.40;99.90;;;;;;5095616;28;20326;-79
2023/09/25 01:15:19;;;;;;;;;;;12.30;99.90;;;;;;5117146;27;19924;-79
2023/09/25 01:17:45;;;;;;;;;;;12.30;99.90;;;;;;5082029;28;20014;-78
2023/09/25 01:20:13;;;;;;;;;;;12.30;99.90;;;;;;5083384;28;20030;-79
2023/09/25 01:22:39;;;;;;;;;;;12.30;99.90;;;;;;5111853;27;19966;-77
2023/09/25 01:25:06;;;;;;;;;;;12.30;99.90;;;;;;5105239;28;19935;-78
2023/09/25 01:27:32;;;;;;;;;;;12.30;99.90;;;;;;5079034;28;19959;-79
2023/09/25 01:29:58;;;;;;;;;;;12.30;99.90;;;;;;5082792;28;19971;-78
2023/09/25 01:32:23;;;;;;;;;;;12.30;99.90;;;;;;5092843;28;19927;-78
2023/09/25 01:34:49;;;;;;;;;;;12.30;99.90;;;;;;5089531;28;19931;-77
2023/09/25 01:37:15;;;;;;;;;;;12.20;99.90;;;;;;5094152;28;19928;-78
2023/09/25 01:39:41;;;;;;;;;;;12.20;99.90;;;;;;5072273;28;19974;-78
2023/09/25 01:42:07;;;;;;;;;;;12.20;99.90;;;;;;5095956;28;19938;-79
2023/09/25 01:44:33;;;;;;;;;;;12.10;99.90;;;;;;5083767;28;20007;-79
2023/09/25 01:46:59;;;;;;;;;;;12.10;99.90;;;;;;5080859;28;19931;-79
2023/09/25 01:49:24;;;;;;;;;;;12.10;99.90;;;;;;5100324;28;19938;-79
2023/09/25 01:51:50;;;;;;;;;;;12.10;99.90;;;;;;5085028;28;21259;-77
2023/09/25 01:54:16;;;;;;;;;;;12.00;99.90;;;;;;5080611;28;19936;-79
2023/09/25 01:56:44;;;;;;;;;;;12.00;99.90;;;;;;5076499;28;19927;-78
2023/09/25 01:59:10;;;;;;;;;;;12.00;99.90;;;;;;5082470;28;19924;-78
2023/09/25 02:01:36;;;;;;;;;;;12.00;99.90;;;;;;5082483;28;19993;-79
2023/09/25 02:04:01;;;;;;;;;;;12.00;99.90;;;;;;5106538;27;19959;-78
2023/09/25 02:06:27;;;;;;;;;;;12.10;99.90;;;;;;5117086;27;20014;-78
2023/09/25 02:08:52;;;;;;;;;;;12.00;99.90;;;;;;5082728;28;20437;-79
2023/09/25 02:11:18;;;;;;;;;;;12.00;99.90;;;;;;5083941;28;19969;-79
2023/09/25 02:13:44;;;;;;;;;;;12.00;99.90;;;;;;5093464;28;19930;-78
2023/09/25 02:16:10;;;;;;;;;;;12.00;99.90;;;;;;5086816;28;20390;-79
2023/09/25 02:18:35;;;;;;;;;;;12.00;99.90;;;;;;5083233;28;19927;-77
2023/09/25 02:21:01;;;;;;;;;;;12.00;99.90;;;;;;5085497;28;19967;-78
2023/09/25 02:23:27;;;;;;;;;;;12.00;99.90;;;;;;5115810;27;20896;-78
2023/09/25 02:25:52;;;;;;;;;;;12.00;99.90;;;;;;5100071;28;19938;-78
2023/09/25 02:28:19;;;;;;;;;;;12.00;99.90;;;;;;5135577;27;20417;-79
2023/09/25 02:30:45;;;;;;;;;;;12.00;99.90;;;;;;5118360;27;19924;-79
2023/09/25 02:33:10;;;;;;;;;;;12.00;99.90;;;;;;5079952;28;20266;-78
2023/09/25 02:35:36;;;;;;;;;;;12.00;99.90;;;;;;5098464;28;20023;-78
2023/09/25 02:38:02;;;;;;;;;;;12.00;99.90;;;;;;5085514;28;19924;-79
2023/09/25 02:40:28;;;;;;;;;;;12.00;99.90;;;;;;5084944;28;19932;-79
2023/09/25 02:42:54;;;;;;;;;;;12.10;99.90;;;;;;5090474;28;19951;-78
2023/09/25 02:45:19;;;;;;;;;;;12.10;99.90;;;;;;5087650;28;19923;-79
2023/09/25 02:47:45;;;;;;;;;;;12.10;99.90;;;;;;5088980;28;20376;-78
2023/09/25 02:50:11;;;;;;;;;;;12.10;99.90;;;;;;5099122;28;19923;-79
2023/09/25 02:52:37;;;;;;;;;;;12.10;99.90;;;;;;5088275;28;20449;-79
2023/09/25 02:55:03;;;;;;;;;;;12.10;99.90;;;;;;5114879;27;19934;-78
2023/09/25 02:57:29;;;;;;;;;;;12.10;99.90;;;;;;5089868;28;19942;-78
2023/09/25 02:59:54;;;;;;;;;;;12.00;99.90;;;;;;5086066;28;20426;-79
2023/09/25 03:02:20;;;;;;;;;;;12.10;99.90;;;;;;5105365;27;19936;-78
2023/09/25 03:04:46;;;;;;;;;;;12.10;99.90;;;;;;5106098;28;19923;-78
2023/09/25 03:07:12;;;;;;;;;;;12.10;99.90;;;;;;5101617;28;19985;-79
2023/09/25 03:09:38;;;;;;;;;;;12.10;99.90;;;;;;5105787;28;20340;-76
2023/09/25 03:12:04;;;;;;;;;;;12.10;99.90;;;;;;5090157;28;19930;-79
2023/09/25 03:14:30;;;;;;;;;;;12.10;99.90;;;;;;5102568;28;20305;-78
2023/09/25 03:16:55;;;;;;;;;;;12.10;99.90;;;;;;5102359;28;19928;-82
2023/09/25 03:19:21;;;;;;;;;;;12.10;99.90;;;;;;5119934;27;19923;-83
2023/09/25 03:21:47;;;;;;;;;;;12.10;99.90;;;;;;5088610;28;19950;-82
2023/09/25 03:24:12;;;;;;;;;;;12.10;99.90;;;;;;5099225;28;19928;-83
2023/09/25 03:26:41;;;;;;;;;;;12.10;99.90;;;;;;5086149;28;19939;-83
2023/09/25 03:29:07;;;;;;;;;;;12.10;99.90;;;;;;5122496;27;19924;-83
2023/09/25 03:31:33;;;;;;;;;;;12.10;99.90;;;;;;5103747;28;20053;-84
2023/09/25 03:33:59;;;;;;;;;;;12.10;99.90;;;;;;5096004;28;20014;-84
2023/09/25 03:36:25;;;;;;;;;;;12.10;99.90;;;;;;5088415;28;20462;-83
2023/09/25 03:38:51;;;;;;;;;;;12.10;99.90;;;;;;5083644;28;19970;-83
2023/09/25 03:41:16;;;;;;;;;;;12.10;99.90;;;;;;5102767;28;20366;-82
2023/09/25 03:43:42;;;;;;;;;;;12.10;99.90;;;;;;5104078;28;19931;-83
2023/09/25 03:46:11;;;;;;;;;;;12.10;99.90;;;;;;5099168;28;20379;-83
2023/09/25 03:48:37;;;;;;;;;;;12.10;99.90;;;;;;5083183;28;19981;-84
2023/09/25 03:51:03;;;;;;;;;;;12.10;99.90;;;;;;5098863;28;19936;-84
2023/09/25 03:53:28;;;;;;;;;;;12.10;99.90;;;;;;5105070;27;19932;-84
2023/09/25 03:55:54;;;;;;;;;;;12.10;99.90;;;;;;5100931;28;19923;-84
2023/09/25 03:58:20;;;;;;;;;;;12.10;99.90;;;;;;5098473;27;20015;-84
2023/09/25 04:00:46;;;;;;;;;;;12.10;99.90;;;;;;5096388;28;20320;-83
2023/09/25 04:03:11;;;;;;;;;;;12.10;99.90;;;;;;5083662;28;19933;-83
2023/09/25 04:05:37;;;;;;;;;;;12.10;99.90;;;;;;5080820;28;19932;-84
2023/09/25 04:08:04;;;;;;;;;;;12.10;99.90;;;;;;5096500;28;20345;-84
2023/09/25 04:10:30;;;;;;;;;;;12.10;99.90;;;;;;5084413;28;19928;-84
2023/09/25 04:12:56;;;;;;;;;;;12.10;99.90;;;;;;5101586;28;19935;-85
2023/09/25 04:15:25;;;;;;;;;;;12.10;99.90;;;;;;5087399;28;20172;-84
2023/09/25 04:17:51;;;;;;;;;;;12.10;99.90;;;;;;5119135;27;19924;-84
2023/09/25 04:20:24;;;;;;;;;;;12.20;99.90;;;;;;5079922;28;19932;-84
2023/09/25 04:22:51;;;;;;;;;;;12.20;99.90;;;;;;5086270;28;19924;-84
2023/09/25 04:25:20;;;;;;;;;;;12.20;99.90;;;;;;5087359;28;19924;-83
2023/09/25 04:27:46;;;;;;;;;;;12.20;99.90;;;;;;5086048;28;19924;-83
2023/09/25 04:30:17;;;;;;;;;;;12.20;99.90;;;;;;5079285;28;19931;-83
2023/09/25 04:32:47;;;;;;;;;;;12.20;99.90;;;;;;5087647;28;19935;-83
2023/09/25 04:35:16;;;;;;;;;;;12.30;99.90;;;;;;5079387;28;19928;-84
2023/09/25 04:37:43;;;;;;;;;;;12.20;99.90;;;;;;5131069;27;19924;-83
2023/09/25 04:40:15;;;;;;;;;;;12.20;99.90;;;;;;5083463;28;20014;-84
2023/09/25 04:42:43;;;;;;;;;;;12.20;99.90;;;;;;5080293;28;19974;-83
2023/09/25 04:45:13;;;;;;;;;;;12.20;99.90;;;;;;5104396;27;20837;-83
2023/09/25 04:47:42;;;;;;;;;;;12.20;99.90;;;;;;5085347;27;19927;-79
2023/09/25 04:50:11;;;;;;;;;;;12.10;99.90;;;;;;5108116;27;19928;-80
2023/09/25 04:52:40;;;;;;;;;;;12.20;99.90;;;;;;5091770;28;19930;-80
2023/09/25 04:55:07;;;;;;;;;;;12.20;99.90;;;;;;5088786;28;19932;-81
2023/09/25 04:57:33;;;;;;;;;;;12.20;99.90;;;;;;5087074;28;19924;-81
2023/09/25 04:59:59;;;;;;;;;;;12.10;99.90;;;;;;5074490;28;20054;-79
2023/09/25 05:02:24;;;;;;;;;;;12.20;99.90;;;;;;5088008;27;20979;-78
2023/09/25 05:04:50;;;;;;;;;;;12.20;99.90;;;;;;5093332;28;19935;-81
2023/09/25 05:07:17;;;;;;;;;;;12.10;99.90;;;;;;5096044;27;19936;-78
2023/09/25 05:09:43;;;;;;;;;;;12.20;99.90;;;;;;5079109;27;19978;-79
2023/09/25 05:12:11;;;;;;;;;;;12.20;99.90;;;;;;5096674;28;20649;-78
2023/09/25 05:14:37;;;;;;;;;;;12.20;99.90;;;;;;5102222;28;19928;-79
2023/09/25 05:17:04;;;;;;;;;;;12.20;99.90;;;;;;5099296;28;19924;-85
2023/09/25 05:19:30;;;;;;;;;;;12.20;99.90;;;;;;5084108;28;19949;-84
2023/09/25 05:21:56;;;;;;;;;;;12.20;99.90;;;;;;5095021;28;19928;-83
2023/09/25 05:24:24;;;;;;;;;;;12.20;99.90;;;;;;5133536;27;19932;-84
2023/09/25 05:26:50;;;;;;;;;;;12.20;99.90;;;;;;5084353;28;19927;-85
2023/09/25 05:29:15;;;;;;;;;;;12.20;99.90;;;;;;5086642;28;19988;-83
2023/09/25 05:31:45;;;;;;;;;;;12.20;99.90;;;;;;5084667;28;20404;-84
2023/09/25 05:34:10;;;;;;;;;;;12.20;99.90;;;;;;5102444;28;20275;-84
2023/09/25 05:36:36;;;;;;;;;;;12.20;99.90;;;;;;5084406;28;19982;-84
2023/09/25 05:39:02;;;;;;;;;;;12.20;99.90;;;;;;5080544;28;19935;-79
2023/09/25 05:41:28;;;;;;;;;;;12.20;99.90;;;;;;5087125;28;19932;-78
2023/09/25 05:43:56;;;;;;;;;;;12.20;99.90;;;;;;5086072;28;20640;-80
2023/09/25 05:46:22;;;;;;;;;;;12.20;99.90;;;;;;5082050;28;19924;-79
2023/09/25 05:48:47;;;;;;;;;;;12.20;99.90;;;;;;5082239;28;19977;-80
2023/09/25 05:51:13;;;;;;;;;;;12.20;99.90;;;;;;5083727;28;19931;-79
2023/09/25 05:53:42;;;;;;;;;;;12.20;99.90;;;;;;5079852;28;19928;-81
2023/09/25 05:56:11;;;;;;;;;;;12.30;99.90;;;;;;5115239;27;19935;-78
2023/09/25 05:58:37;;;;;;;;;;;12.20;99.90;;;;;;5083340;28;19928;-80
2023/09/25 06:01:03;;;;;;;;;;;12.20;99.90;;;;;;5079597;28;19928;-78
2023/09/25 06:03:28;;;;;;;;;;;12.20;99.90;;;;;;5102543;28;19927;-78
2023/09/25 06:05:54;;;;;;;;;;;12.20;99.90;;;;;;5100058;27;19924;-77
2023/09/25 06:08:20;;;;;;;;;;;12.20;99.90;;;;;;5132395;27;20409;-77
2023/09/25 06:10:45;;;;;;;;;;;12.20;99.90;;;;;;5078359;28;19924;-78
2023/09/25 06:13:13;;;;;;;;;;;12.20;99.90;;;;;;5086306;28;20441;-81
2023/09/25 06:15:41;;;;;;;;;;;12.30;99.90;;;;;;5097264;28;20350;-81
2023/09/25 06:18:09;;;;;;;;;;;12.30;99.90;;;;;;5084171;28;20410;-81
2023/09/25 06:20:43;;;;;;;;;;;12.30;99.90;;;;;;5081744;28;19935;-81
2023/09/25 06:23:09;;;;;;;;;;;12.30;99.90;;;;;;5086214;28;19928;-81
2023/09/25 06:25:35;;;;;;;;;;;12.40;99.90;;;;;;5083497;28;19931;-81
2023/09/25 06:28:02;;;;;;;;;;;12.40;99.90;;;;;;5080484;28;20030;-81
2023/09/25 06:30:30;;;;;;;;;;;12.40;99.90;;;;;;5083466;28;20378;-81
2023/09/25 06:32:55;;;;;;;;;;;12.40;99.90;;;;;;5083563;28;20024;-81
2023/09/25 06:35:21;;;;;;;;;;;12.50;99.90;;;;;;5081656;28;19969;-81
2023/09/25 06:37:47;;;;;;;;;;;12.50;99.90;;;;;;5086003;28;20390;-80
2023/09/25 06:40:15;;;;;;;;;;;12.50;99.90;;;;;;5080393;28;19928;-81
2023/09/25 06:42:41;;;;;;;;;;;12.50;99.90;;;;;;5104184;28;19935;-80
2023/09/25 06:45:07;;;;;;;;;;;12.60;99.90;;;;;;5083165;28;19931;-80
2023/09/25 06:47:33;;;;;;;;;;;12.60;99.90;;;;;;5097331;28;20044;-81
2023/09/25 06:49:59;;;;;;;;;;;12.70;99.90;;;;;;5119289;27;19938;-80
2023/09/25 06:52:25;;;;;;;;;;;12.70;99.90;;;;;;5080977;28;20388;-81
2023/09/25 06:54:51;;;;;;;;;;;12.70;99.90;;;;;;5081769;28;19935;-81
2023/09/25 06:57:16;;;;;;;;;;;12.80;99.90;;;;;;5133154;27;20208;-81
2023/09/25 06:59:42;;;;;;;;;;;12.80;99.90;;;;;;5094629;28;19928;-80
2023/09/25 07:02:08;;;;;;;;;;;12.80;99.90;;;;;;5083385;28;19939;-82
2023/09/25 07:04:33;;;;;;;;;;;12.90;99.90;;;;;;5119405;27;20313;-81
2023/09/25 07:06:59;;;;;;;;;;;12.90;99.90;;;;;;5100796;28;19943;-80
2023/09/25 07:09:25;;;;;;;;;;;13.00;99.90;;;;;;5112685;27;20018;-81
2023/09/25 07:11:50;;;;;;;;;;;13.00;99.90;;;;;;5098959;28;19931;-80
2023/09/25 07:14:16;;;;;;;;;;;13.00;99.90;;;;;;5084148;28;20403;-80
2023/09/25 07:16:42;;;;;;;;;;;13.10;99.90;;;;;;5106764;28;19924;-80
2023/09/25 07:19:11;;;;;;;;;;;13.20;99.90;;;;;;5085723;28;19924;-80
2023/09/25 07:21:37;;;;;;;;;;;13.20;99.90;;;;;;5103928;28;19931;-81
2023/09/25 07:24:03;;;;;;;;;;;13.20;99.90;;;;;;5080637;28;19924;-80
2023/09/25 07:26:28;;;;;;;;;;;13.30;99.90;;;;;;5087356;28;20136;-80
2023/09/25 07:28:54;;;;;;;;;;;13.30;99.90;;;;;;5087036;28;19928;-81
2023/09/25 07:31:22;;;;;;;;;;;13.40;99.90;;;;;;5084552;28;19924;-80
2023/09/25 07:33:49;;;;;;;;;;;13.40;99.90;;;;;;5087530;28;19976;-80
2023/09/25 07:36:19;;;;;;;;;;;13.40;99.90;;;;;;5084247;28;19924;-81
2023/09/25 07:38:48;;;;;;;;;;;13.50;99.90;;;;;;5100562;27;19931;-80
2023/09/25 07:41:14;;;;;;;;;;;13.60;99.90;;;;;;5083866;28;19928;-80
2023/09/25 07:43:40;;;;;;;;;;;13.60;99.90;;;;;;5086157;28;20932;-80
2023/09/25 07:46:06;;;;;;;;;;;13.60;99.90;;;;;;5101145;28;19981;-81
2023/09/25 07:48:32;;;;;;;;;;;13.70;99.90;;;;;;5086731;28;19924;-81
2023/09/25 07:51:01;;;;;;;;;;;13.80;99.90;;;;;;5082132;28;19966;-81
2023/09/25 07:53:28;;;;;;;;;;;13.80;99.90;;;;;;5135253;27;19951;-80
2023/09/25 07:55:54;;;;;;;;;;;13.90;99.90;;;;;;5081969;28;20030;-81
2023/09/25 07:58:19;;;;;;;;;;;14.00;99.90;;;;;;5084115;28;20027;-80
2023/09/25 08:00:47;;;;;;;;;;;14.10;99.90;;;;;;5093682;28;19932;-80
2023/09/25 08:03:17;;;;;;;;;;;14.20;99.90;;;;;;5101472;28;20405;-80
2023/09/25 08:05:43;;;;;;;;;;;14.30;99.90;;;;;;5084141;28;19924;-80
2023/09/25 08:08:12;;;;;;;;;;;14.50;99.90;;;;;;5081815;28;19932;-80
2023/09/25 08:10:43;;;;;;;;;;;14.60;99.90;;;;;;5101506;28;20355;-81
2023/09/25 08:13:10;;;;;;;;;;;14.70;99.90;;;;;;5119966;27;19931;-80
2023/09/25 08:15:36;;;;;;;;;;;14.80;99.90;;;;;;5085568;28;20018;-81
2023/09/25 08:18:02;;;;;;;;;;;14.80;99.90;;;;;;5085568;28;20001;-80
2023/09/25 08:20:28;;;;;;;;;;;14.90;99.90;;;;;;5114797;27;19927;-81
2023/09/25 08:22:54;;;;;;;;;;;14.90;99.90;;;;;;5120313;27;19923;-81
2023/09/25 08:25:20;;;;;;;;;;;14.90;99.90;;;;;;5102778;28;19924;-80
2023/09/25 08:27:46;;;;;;;;;;;14.90;99.90;;;;;;5100637;28;19923;-80
2023/09/25 08:30:12;;;;;;;;;;;14.90;99.90;;;;;;5086427;28;19931;-82
2023/09/25 08:32:38;;;;;;;;;;;15.00;99.90;;;;;;5102125;28;19924;-80
2023/09/25 08:35:07;;;;;;;;;;;15.00;99.90;;;;;;5080504;28;19967;-81
2023/09/25 08:37:33;;;;;;;;;;;15.00;99.90;;;;;;5099425;28;20532;-80
2023/09/25 08:39:59;;;;;;;;;;;15.00;99.90;;;;;;5100512;28;20385;-80
2023/09/25 08:42:25;;;;;;;;;;;15.10;99.90;;;;;;5085194;28;19949;-81
2023/09/25 08:44:52;;;;;;;;;;;15.20;99.90;;;;;;5085515;28;20650;-81
2023/09/25 08:47:24;;;;;;;;;;;15.30;99.90;;;;;;5100498;27;19923;-80
2023/09/25 08:49:50;;;;;;;;;;;15.50;99.90;;;;;;5100113;27;20089;-80
2023/09/25 08:52:16;;;;;;;;;;;15.70;99.90;;;;;;5087745;28;19932;-80
2023/09/25 08:54:42;;;;;;;;;;;15.80;99.90;;;;;;5099672;28;19967;-81
2023/09/25 08:57:07;;;;;;;;;;;15.90;99.90;;;;;;5087566;28;19958;-81
2023/09/25 08:59:36;;;;;;;;;;;16.00;99.90;;;;;;5095351;28;20217;-77
2023/09/25 09:02:02;;;;;;;;;;;16.20;99.90;;;;;;5087090;28;19924;-78
2023/09/25 09:04:30;;;;;;;;;;;16.20;99.90;;;;;;5085366;28;19930;-76
2023/09/25 09:06:56;;;;;;;;;;;16.40;99.90;;;;;;5099072;28;19924;-77
2023/09/25 09:09:22;;;;;;;;;;;16.50;99.90;;;;;;5087172;28;20584;-77
2023/09/25 09:11:51;;;;;;;;;;;16.60;99.90;;;;;;5095974;28;20138;-77
2023/09/25 09:14:33;;;;;;;;;;;16.60;99.90;;;;;;5084219;28;19963;-77
2023/09/25 09:16:59;;;;;;;;;;;16.60;99.90;;;;;;5130988;27;20485;-77
2023/09/25 09:19:25;;;;;;;;;;;16.70;99.90;;;;;;5119445;27;19940;-77
2023/09/25 09:22:01;;;;;;;;;;;16.70;99.90;;;;;;5097311;28;19923;-76
2023/09/25 09:24:28;;;;;;;;;;;16.80;99.90;;;;;;5084956;28;19971;-76
2023/09/25 09:26:53;;;;;;;;;;;16.90;99.90;;;;;;5082999;28;19931;-76
2023/09/25 09:29:19;;;;;;;;;;;17.00;99.90;;;;;;5113395;27;20314;-76
2023/09/25 09:31:45;;;;;;;;;;;17.00;99.90;;;;;;5084251;28;19931;-76
2023/09/25 09:34:14;;;;;;;;;;;17.10;99.90;;;;;;5095900;28;19958;-77
2023/09/25 09:36:48;;;;;;;;;;;17.10;99.90;;;;;;5101240;28;19932;-76
2023/09/25 09:39:16;;;;;;;;;;;17.20;99.90;;;;;;5082514;28;19923;-77
2023/09/25 09:41:42;;;;;;;;;;;17.20;99.90;;;;;;5101842;27;19944;-76
2023/09/25 09:44:08;;;;;;;;;;;17.30;99.90;;;;;;5101540;28;19935;-77
2023/09/25 09:46:37;;;;;;;;;;;17.30;99.90;;;;;;5095001;28;19977;-80
2023/09/25 09:49:03;;;;;;;;;;;17.30;99.90;;;;;;5084661;28;19973;-81
2023/09/25 09:51:31;;;;;;;;;;;17.40;99.90;;;;;;5096359;28;20294;-80
2023/09/25 09:53:59;;;;;;;;;;;17.50;99.90;;;;;;5093252;28;20702;-80
2023/09/25 09:56:25;;;;;;;;;;;17.50;99.90;;;;;;5090724;28;20347;-80
2023/09/25 09:58:51;;;;;;;;;;;17.60;99.90;;;;;;5097311;27;19927;-80
2023/09/25 10:01:17;;;;;;;;;;;17.70;99.90;;;;;;5130303;27;19931;-80
2023/09/25 10:03:42;;;;;;;;;;;17.80;99.90;;;;;;5086043;28;19924;-81
2023/09/25 10:06:12;;;;;;;;;;;17.80;99.90;;;;;;5090600;28;19935;-80
2023/09/25 10:08:38;;;;;;;;;;;17.90;99.90;;;;;;5079698;28;19963;-81
2023/09/25 10:11:15;;;;;;;;;;;18.00;99.90;;;;;;5083734;28;19977;-80
2023/09/25 10:13:41;;;;;;;;;;;18.10;99.90;;;;;;5082612;28;20123;-75
2023/09/25 10:16:07;;;;;;;;;;;18.10;99.90;;;;;;5096293;28;20406;-76
2023/09/25 10:18:33;;;;;;;;;;;18.20;99.90;;;;;;5077796;28;19924;-76
2023/09/25 10:21:10;;;;;;;;;;;18.20;99.90;;;;;;5085908;28;20020;-76
2023/09/25 10:23:39;;;;;;;;;;;18.20;99.90;;;;;;5081590;28;19938;-76
2023/09/25 10:26:09;;;;;;;;;;;18.30;99.90;;;;;;5105703;28;19934;-76
2023/09/25 10:28:39;;;;;;;;;;;18.30;99.90;;;;;;5096801;28;20313;-76
2023/09/25 10:31:18;;;;;;;;;;;18.40;99.90;;;;;;5133469;27;20382;-76
2023/09/25 10:33:52;;;;;;;;;;;18.50;99.90;;;;;;5083764;28;19989;-76
2023/09/25 10:36:18;;;;;;;;;;;18.50;99.90;;;;;;5097462;28;20022;-75
2023/09/25 10:38:44;;;;;;;;;;;18.60;99.90;;;;;;5082047;28;20010;-75
2023/09/25 10:41:11;;;;;;;;;;;18.70;99.90;;;;;;5121261;27;19938;-75
2023/09/25 10:43:37;;;;;;;;;;;18.70;99.90;;;;;;5080959;28;20206;-77
2023/09/25 10:46:03;;;;;;;;;;;18.70;99.90;;;;;;5073450;28;19928;-75
2023/09/25 10:48:31;;;;;;;;;;;18.70;99.90;;;;;;5094831;28;19939;-75
2023/09/25 10:50:56;;;;;;;;;;;18.80;99.90;;;;;;5123918;27;20011;-75
2023/09/25 10:53:22;;;;;;;;;;;18.90;99.90;;;;;;5132883;27;20065;-76
2023/09/25 10:55:51;;;;;;;;;;;19.00;99.90;;;;;;5076569;28;20274;-80
2023/09/25 10:58:18;;;;;;;;;;;19.10;99.90;;;;;;5116841;27;19928;-81
2023/09/25 11:00:45;;;;;;;;;;;19.20;99.90;;;;;;5093624;28;19938;-79
2023/09/25 11:03:11;;;;;;;;;;;19.30;99.90;;;;;;5140184;27;19932;-80
2023/09/25 11:05:37;;;;;;;;;;;19.30;99.90;;;;;;5091919;28;20914;-80
2023/09/25 11:08:06;;;;;;;;;;;19.40;99.90;;;;;;5091695;27;19989;-80
2023/09/25 11:10:34;;;;;;;;;;;19.40;99.90;;;;;;5097000;27;19931;-80
2023/09/25 11:13:00;;;;;;;;;;;19.50;99.90;;;;;;5093015;28;19932;-80
2023/09/25 11:15:27;;;;;;;;;;;19.50;99.90;;;;;;5080987;28;19930;-80
2023/09/25 11:17:53;;;;;;;;;;;19.60;99.90;;;;;;5122866;27;20386;-81
2023/09/25 11:20:22;;;;;;;;;;;19.60;99.90;;;;;;5130123;27;20292;-80
2023/09/25 11:22:48;;;;;;;;;;;19.70;99.90;;;;;;5085350;28;19924;-80
2023/09/25 11:25:15;;;;;;;;;;;19.80;99.90;;;;;;5093082;27;20360;-80
2023/09/25 11:27:54;;;;;;;;;;;19.80;99.90;;;;;;5080688;28;20275;-80
2023/09/25 11:30:20;;;;;;;;;;;19.90;99.90;;;;;;5078067;28;19924;-75
2023/09/25 11:32:48;;;;;;;;;;;19.90;99.90;;;;;;5097295;28;20446;-75
2023/09/25 11:35:17;;;;;;;;;;;19.90;99.90;;;;;;5074150;28;19960;-75
2023/09/25 11:37:59;;;;;;;;;;;19.90;99.90;;;;;;5089604;28;19931;-79
2023/09/25 11:40:29;;;;;;;;;;;19.90;99.90;;;;;;5096758;28;19928;-80
2023/09/25 11:42:56;;;;;;;;;;;19.90;99.90;;;;;;5097964;28;20408;-79
2023/09/25 11:45:22;;;;;;;;;;;20.00;99.90;;;;;;5091188;28;19928;-79
2023/09/25 11:47:48;;;;;;;;;;;20.00;99.90;;;;;;5081492;28;19950;-80
2023/09/25 11:50:15;;;;;;;;;;;20.00;99.90;;;;;;5086697;27;19951;-80
2023/09/25 11:52:42;;;;;;;;;;;20.00;99.90;;;;;;5096233;27;19928;-79
2023/09/25 11:55:11;;;;;;;;;;;19.90;99.90;;;;;;5136509;27;20433;-80
2023/09/25 11:57:37;;;;;;;;;;;19.90;99.90;;;;;;5101037;28;19923;-79
2023/09/25 12:00:06;;;;;;;;;;;20.00;99.90;;;;;;5087292;28;20366;-79
2023/09/25 12:02:32;;;;;;;;;;;20.10;99.90;;;;;;5083102;28;19924;-79
2023/09/25 12:04:58;;;;;;;;;;;20.10;99.90;;;;;;5143609;27;19988;-79
2023/09/25 12:07:26;;;;;;;;;;;20.20;99.90;;;;;;5085896;27;19932;-81
2023/09/25 12:09:52;;;;;;;;;;;20.20;99.90;;;;;;5096250;28;20388;-80
2023/09/25 12:12:18;;;;;;;;;;;20.20;99.90;;;;;;5091123;28;19951;-79
2023/09/25 12:14:44;;;;;;;;;;;20.20;99.90;;;;;;5095980;28;19923;-79
2023/09/25 12:17:10;;;;;;;;;;;20.20;99.90;;;;;;5084556;28;19931;-79
2023/09/25 12:19:36;;;;;;;;;;;20.20;99.90;;;;;;5080309;28;19954;-79
2023/09/25 12:22:02;;;;;;;;;;;20.10;99.90;;;;;;5133306;27;19924;-80
2023/09/25 12:24:28;;;;;;;;;;;20.10;99.90;;;;;;5138392;27;19931;-79
2023/09/25 12:26:54;;;;;;;;;;;20.10;99.90;;;;;;5092852;27;19932;-79
2023/09/25 12:29:19;;;;;;;;;;;20.10;99.90;;;;;;5090185;28;20306;-80
2023/09/25 12:31:45;;;;;;;;;;;20.00;99.90;;;;;;5075646;28;19932;-80
2023/09/25 12:34:11;;;;;;;;;;;20.00;99.90;;;;;;5109527;27;19924;-79
2023/09/25 12:36:37;;;;;;;;;;;20.00;99.90;;;;;;5092835;28;19930;-79
2023/09/25 12:39:03;;;;;;;;;;;20.00;99.90;;;;;;5085628;28;19931;-75
2023/09/25 12:41:28;;;;;;;;;;;20.00;99.90;;;;;;5126367;27;20519;-75
2023/09/25 12:43:54;;;;;;;;;;;20.10;99.90;;;;;;5117676;27;19969;-75
2023/09/25 12:46:20;;;;;;;;;;;20.20;99.90;;;;;;5081701;28;19928;-75
2023/09/25 12:48:45;;;;;;;;;;;20.30;99.90;;;;;;5080524;28;20005;-75
2023/09/25 12:51:11;;;;;;;;;;;20.40;99.90;;;;;;5115557;27;19977;-75
2023/09/25 12:53:39;;;;;;;;;;;20.40;99.90;;;;;;5095563;28;20014;-75
2023/09/25 12:56:05;;;;;;;;;;;20.30;99.90;;;;;;5084831;28;19938;-76
2023/09/25 12:58:30;;;;;;;;;;;20.30;99.90;;;;;;5084627;28;19931;-76
2023/09/25 13:00:56;;;;;;;;;;;20.20;99.90;;;;;;5072983;28;19923;-76
2023/09/25 13:03:22;;;;;;;;;;;20.20;99.90;;;;;;5139122;27;19924;-76
2023/09/25 13:05:47;;;;;;;;;;;20.20;99.90;;;;;;5108823;27;19935;-76
2023/09/25 13:08:13;;;;;;;;;;;20.20;99.90;;;;;;5130157;27;20391;-76
2023/09/25 13:10:39;;;;;;;;;;;20.10;99.90;;;;;;5097023;28;19937;-76
2023/09/25 13:13:05;;;;;;;;;;;20.10;99.90;;;;;;5084326;28;19939;-75
2023/09/25 13:15:30;;;;;;;;;;;20.00;99.90;;;;;;5085939;28;19924;-80
2023/09/25 13:17:56;;;;;;;;;;;20.10;99.90;;;;;;5101056;28;19931;-80
2023/09/25 13:20:22;;;;;;;;;;;20.00;99.90;;;;;;5074123;28;19924;-80
2023/09/25 13:22:47;;;;;;;;;;;20.00;99.90;;;;;;5100960;28;20034;-79
2023/09/25 13:25:13;;;;;;;;;;;20.00;99.90;;;;;;5083363;28;20268;-80
2023/09/25 13:27:42;;;;;;;;;;;20.00;99.90;;;;;;5085180;28;19924;-80
2023/09/25 13:30:15;;;;;;;;;;;20.00;99.90;;;;;;5082734;28;19938;-80
2023/09/25 13:32:41;;;;;;;;;;;19.90;99.90;;;;;;5129956;27;20294;-80
2023/09/25 13:35:09;;;;;;;;;;;19.90;99.90;;;;;;5083635;28;19928;-80
2023/09/25 13:37:35;;;;;;;;;;;19.90;99.90;;;;;;5126414;27;19976;-80
2023/09/25 13:40:01;;;;;;;;;;;19.90;99.90;;;;;;5084325;28;19923;-79
2023/09/25 13:42:27;;;;;;;;;;;19.90;99.90;;;;;;5121696;27;19931;-80
2023/09/25 13:44:52;;;;;;;;;;;19.80;99.90;;;;;;5099074;28;19924;-79
2023/09/25 13:47:18;;;;;;;;;;;19.80;99.90;;;;;;5117866;27;19932;-80
2023/09/25 13:49:46;;;;;;;;;;;19.80;99.90;;;;;;5132721;27;19951;-80
2023/09/25 13:52:12;;;;;;;;;;;19.80;99.90;;;;;;5101630;28;20474;-80
2023/09/25 13:54:41;;;;;;;;;;;19.80;99.90;;;;;;5098224;28;19977;-80
2023/09/25 13:57:06;;;;;;;;;;;19.80;99.90;;;;;;5101291;28;20147;-80
2023/09/25 13:59:33;;;;;;;;;;;19.70;99.90;;;;;;5094962;28;19924;-75
2023/09/25 14:01:58;;;;;;;;;;;19.70;99.90;;;;;;5085249;28;20202;-75
2023/09/25 14:04:24;;;;;;;;;;;19.80;99.90;;;;;;5101958;28;19934;-76
2023/09/25 14:06:50;;;;;;;;;;;19.90;99.90;;;;;;5085538;28;20946;-76
2023/09/25 14:09:16;;;;;;;;;;;20.00;99.90;;;;;;5098043;28;19977;-76
2023/09/25 14:11:42;;;;;;;;;;;20.10;99.90;;;;;;5083190;28;19924;-76
2023/09/25 14:14:08;;;;;;;;;;;20.10;99.90;;;;;;5101882;28;19992;-75